PWSweather.com
Personal Weather Stations
Station Observations
79674
AfterstegDE 79674

AfterstegDE 79674

Lat: 47.84344, Lon: 7.92844

Elevation: 809

Station Type: Davis Vantage 2 Aktive

Latest ConditionsUpdated 3:37:03 PM GMT+01:01 Tuesday, Jul 23, 2019
Currently Today's Max Today's Min Today's Average
Temperature 91.0°F32.8°C 91.0°F32.8°C 61.0°F16.1°C 72.7°F22.6°C
Dew Point 56.1°F13.4°C 63.1°F17.3°C 52.9°F11.6°C 57.2°F14.0°C
Winds 0.9 mph NNW1.4 kmh NNW 4.0 mph -6.4 kmh - - 0.7 mph 1.1 kmh
Wind Gusts 2.0 mph3.2 kmh 8.1 mph13.0 kmh - -
Humidity 31% 85% 29% 63%
Pressure 30.04 in1017.3 mb 30.17 in1021.7 mb 30.04 in1017.3 mb -
Hour Temp Dew Point Humidity Winds Wind Gusts Pressure Precip Precip Rate Daily Precip Total
03:37 PM 91.0°F32.8°C 56.1°F13.4°C 31% 0.9 mph NNW1.4 kmh NNW 2.0 mph3.2 kmh 30.04 in1017.3 mb - 0.00 in0.0 mm 0.00 in0.0 mm
03:32 PM 90.9°F32.7°C 56.1°F13.4°C 31% 0.9 mph SW1.4 kmh SW 0.9 mph1.4 kmh 30.04 in1017.3 mb - 0.00 in0.0 mm 0.00 in0.0 mm
03:27 PM 90.7°F32.6°C 56.8°F13.8°C 32% Calm Calm 0.9 mph1.4 kmh 30.04 in1017.3 mb - 0.00 in0.0 mm 0.00 in0.0 mm
03:22 PM 90.3°F32.4°C 54.7°F12.6°C 30% 0.9 mph W1.4 kmh W -- 30.04 in1017.3 mb - 0.00 in0.0 mm 0.00 in0.0 mm
03:17 PM 90.1°F32.3°C 53.6°F12.0°C 29% 0.9 mph WSW1.4 kmh WSW -- 30.05 in1017.6 mb - 0.00 in0.0 mm 0.00 in0.0 mm
03:12 PM 90.1°F32.3°C 55.4°F13.0°C 31% 2.0 mph SW3.2 kmh SW -- 30.05 in1017.6 mb - 0.00 in0.0 mm 0.00 in0.0 mm
03:07 PM 90.0°F32.2°C 55.2°F12.9°C 31% 2.0 mph SW3.2 kmh SW 2.0 mph3.2 kmh 30.05 in1017.6 mb - 0.00 in0.0 mm 0.00 in0.0 mm
03:02 PM 89.8°F32.1°C 55.0°F12.8°C 31% 2.0 mph SW3.2 kmh SW 4.0 mph6.4 kmh 30.05 in1017.6 mb - 0.00 in0.0 mm 0.00 in0.0 mm
02:57 PM 90.0°F32.2°C 55.2°F12.9°C 31% 0.9 mph SE1.4 kmh SE -- 30.05 in1017.6 mb - 0.00 in0.0 mm 0.00 in0.0 mm
02:52 PM 89.8°F32.1°C 55.0°F12.8°C 31% Calm Calm 2.9 mph4.7 kmh 30.05 in1017.6 mb - 0.00 in0.0 mm 0.00 in0.0 mm
02:47 PM 89.6°F32.0°C 54.1°F12.3°C 30% 0.9 mph SSW1.4 kmh SSW -- 30.06 in1017.9 mb - 0.00 in0.0 mm 0.00 in0.0 mm
02:42 PM 89.8°F32.1°C 55.0°F12.8°C 31% 0.9 mph SW1.4 kmh SW 0.9 mph1.4 kmh 30.06 in1017.9 mb - 0.00 in0.0 mm 0.00 in0.0 mm
02:37 PM 89.4°F31.9°C 54.9°F12.7°C 31% 0.9 mph SW1.4 kmh SW -- 30.06 in1017.9 mb - 0.00 in0.0 mm 0.00 in0.0 mm
02:32 PM 89.2°F31.8°C 54.7°F12.6°C 31% 2.0 mph SW3.2 kmh SW 0.9 mph1.4 kmh 30.06 in1017.9 mb - 0.00 in0.0 mm 0.00 in0.0 mm
02:27 PM 89.2°F31.8°C 57.2°F14.0°C 34% 2.9 mph WSW4.7 kmh WSW 2.0 mph3.2 kmh 30.06 in1017.9 mb - 0.00 in0.0 mm 0.00 in0.0 mm
02:22 PM 89.1°F31.7°C 54.5°F12.5°C 31% 2.0 mph SSW3.2 kmh SSW 2.9 mph4.7 kmh 30.06 in1017.9 mb - 0.00 in0.0 mm 0.00 in0.0 mm
02:17 PM 89.2°F31.8°C 56.3°F13.5°C 33% 2.0 mph SSW3.2 kmh SSW 2.0 mph3.2 kmh 30.06 in1017.9 mb - 0.00 in0.0 mm 0.00 in0.0 mm
02:12 PM 89.2°F31.8°C 55.6°F13.1°C 32% 2.0 mph SW3.2 kmh SW 0.9 mph1.4 kmh 30.06 in1017.9 mb - 0.00 in0.0 mm 0.00 in0.0 mm
02:07 PM 89.2°F31.8°C 55.6°F13.1°C 32% 0.9 mph SW1.4 kmh SW 4.0 mph6.4 kmh 30.06 in1017.9 mb - 0.00 in0.0 mm 0.00 in0.0 mm
02:02 PM 89.1°F31.7°C 54.5°F12.5°C 31% 0.9 mph SW1.4 kmh SW -- 30.06 in1017.9 mb - 0.00 in0.0 mm 0.00 in0.0 mm
01:57 PM 88.9°F31.6°C 55.2°F12.9°C 32% 2.0 mph W3.2 kmh W -- 30.07 in1018.3 mb - 0.00 in0.0 mm 0.00 in0.0 mm
01:52 PM 88.9°F31.6°C 56.1°F13.4°C 33% 2.0 mph NW3.2 kmh NW 4.0 mph6.4 kmh 30.07 in1018.3 mb - 0.00 in0.0 mm 0.00 in0.0 mm
01:47 PM 88.5°F31.4°C 56.5°F13.6°C 34% 0.9 mph WSW1.4 kmh WSW 2.0 mph3.2 kmh 30.07 in1018.3 mb - 0.00 in0.0 mm 0.00 in0.0 mm
01:42 PM 88.0°F31.1°C 57.7°F14.3°C 36% 2.0 mph SW3.2 kmh SW -- 30.07 in1018.3 mb - 0.00 in0.0 mm 0.00 in0.0 mm
01:37 PM 87.6°F30.9°C 55.8°F13.2°C 34% 2.0 mph SW3.2 kmh SW 2.9 mph4.7 kmh 30.07 in1018.3 mb - 0.00 in0.0 mm 0.00 in0.0 mm
01:32 PM 86.9°F30.5°C 56.7°F13.7°C 36% 2.0 mph S3.2 kmh S 2.0 mph3.2 kmh 30.07 in1018.3 mb - 0.00 in0.0 mm 0.00 in0.0 mm
01:27 PM 86.0°F30.0°C 55.9°F13.3°C 36% 2.0 mph SW3.2 kmh SW 2.0 mph3.2 kmh 30.08 in1018.6 mb - 0.00 in0.0 mm 0.00 in0.0 mm
01:22 PM 85.8°F29.9°C 55.0°F12.8°C 35% 2.0 mph SW3.2 kmh SW -- 30.08 in1018.6 mb - 0.00 in0.0 mm 0.00 in0.0 mm
01:17 PM 86.4°F30.2°C 54.7°F12.6°C 34% 0.9 mph SSW1.4 kmh SSW -- 30.08 in1018.6 mb - 0.00 in0.0 mm 0.00 in0.0 mm
01:12 PM 86.4°F30.2°C 58.5°F14.7°C 39% 0.9 mph NW1.4 kmh NW -- 30.08 in1018.6 mb - 0.00 in0.0 mm 0.00 in0.0 mm
01:07 PM 85.3°F29.6°C 54.5°F12.5°C 35% 0.9 mph W1.4 kmh W 0.9 mph1.4 kmh 30.08 in1018.6 mb - 0.00 in0.0 mm 0.00 in0.0 mm
01:02 PM 85.5°F29.7°C 55.4°F13.0°C 36% 0.9 mph W1.4 kmh W 0.9 mph1.4 kmh 30.08 in1018.6 mb - 0.00 in0.0 mm 0.00 in0.0 mm
12:57 PM 85.3°F29.6°C 57.6°F14.2°C 39% 0.9 mph W1.4 kmh W -- 30.09 in1019.0 mb - 0.00 in0.0 mm 0.00 in0.0 mm
12:52 PM 85.3°F29.6°C 54.5°F12.5°C 35% 0.9 mph NW1.4 kmh NW 2.9 mph4.7 kmh 30.09 in1019.0 mb - 0.00 in0.0 mm 0.00 in0.0 mm
12:47 PM 84.4°F29.1°C 54.5°F12.5°C 36% Calm Calm -- 30.09 in1019.0 mb - 0.00 in0.0 mm 0.00 in0.0 mm
12:42 PM 84.7°F29.3°C 54.1°F12.3°C 35% 0.9 mph W1.4 kmh W -- 30.09 in1019.0 mb - 0.00 in0.0 mm 0.00 in0.0 mm
12:37 PM 84.4°F29.1°C 52.9°F11.6°C 34% 2.0 mph NW3.2 kmh NW -- 30.09 in1019.0 mb - 0.00 in0.0 mm 0.00 in0.0 mm
12:32 PM 85.3°F29.6°C 56.1°F13.4°C 37% 2.0 mph S3.2 kmh S 4.0 mph6.4 kmh 30.09 in1019.0 mb - 0.00 in0.0 mm 0.00 in0.0 mm
12:27 PM 84.7°F29.3°C 57.0°F13.9°C 39% 0.9 mph SW1.4 kmh SW -- 30.09 in1019.0 mb - 0.00 in0.0 mm 0.00 in0.0 mm
12:22 PM 84.2°F29.0°C 57.9°F14.4°C 41% 2.0 mph SSW3.2 kmh SSW -- 30.09 in1019.0 mb - 0.00 in0.0 mm 0.00 in0.0 mm
12:17 PM 84.6°F29.2°C 54.0°F12.2°C 35% 2.0 mph S3.2 kmh S 2.0 mph3.2 kmh 30.09 in1019.0 mb - 0.00 in0.0 mm 0.00 in0.0 mm
12:12 PM 84.4°F29.1°C 56.7°F13.7°C 39% 2.0 mph SE3.2 kmh SE 2.9 mph4.7 kmh 30.09 in1019.0 mb - 0.00 in0.0 mm 0.00 in0.0 mm
12:07 PM 84.0°F28.9°C 57.0°F13.9°C 40% 2.9 mph SW4.7 kmh SW -- 30.09 in1019.0 mb - 0.00 in0.0 mm 0.00 in0.0 mm
12:02 PM 83.5°F28.6°C 56.7°F13.7°C 40% 2.9 mph NNW4.7 kmh NNW -- 30.09 in1019.0 mb - 0.00 in0.0 mm 0.00 in0.0 mm
11:57 AM 83.1°F28.4°C 55.6°F13.1°C 39% 2.9 mph NW4.7 kmh NW 6.0 mph9.7 kmh 30.10 in1019.3 mb - 0.00 in0.0 mm 0.00 in0.0 mm
11:52 AM 82.9°F28.3°C 54.7°F12.6°C 38% 2.9 mph W4.7 kmh W 2.0 mph3.2 kmh 30.10 in1019.3 mb - 0.00 in0.0 mm 0.00 in0.0 mm
11:47 AM 83.7°F28.7°C 57.4°F14.1°C 41% 0.9 mph WSW1.4 kmh WSW 6.0 mph9.7 kmh 30.10 in1019.3 mb - 0.00 in0.0 mm 0.00 in0.0 mm
11:42 AM 82.9°F28.3°C 56.8°F13.8°C 41% 0.9 mph SE1.4 kmh SE -- 30.10 in1019.3 mb - 0.00 in0.0 mm 0.00 in0.0 mm
11:37 AM 83.1°F28.4°C 57.0°F13.9°C 41% Calm Calm 2.9 mph4.7 kmh 30.10 in1019.3 mb - 0.00 in0.0 mm 0.00 in0.0 mm
11:32 AM 83.5°F28.6°C 56.7°F13.7°C 40% Calm Calm -- 30.10 in1019.3 mb - 0.00 in0.0 mm 0.00 in0.0 mm
11:27 AM 82.9°F28.3°C 57.6°F14.2°C 42% Calm Calm -- 30.10 in1019.3 mb - 0.00 in0.0 mm 0.00 in0.0 mm
11:22 AM 82.2°F27.9°C 56.8°F13.8°C 42% 0.9 mph SSE1.4 kmh SSE -- 30.10 in1019.3 mb - 0.00 in0.0 mm 0.00 in0.0 mm
11:17 AM 82.9°F28.3°C 58.1°F14.5°C 43% 2.0 mph S3.2 kmh S 2.9 mph4.7 kmh 30.10 in1019.3 mb - 0.00 in0.0 mm 0.00 in0.0 mm
11:12 AM 82.0°F27.8°C 55.9°F13.3°C 41% 2.9 mph SSE4.7 kmh SSE -- 30.10 in1019.3 mb - 0.00 in0.0 mm 0.00 in0.0 mm
11:07 AM 81.5°F27.5°C 55.6°F13.1°C 41% 4.0 mph S6.4 kmh S 4.9 mph7.9 kmh 30.10 in1019.3 mb - 0.00 in0.0 mm 0.00 in0.0 mm
11:02 AM 81.7°F27.6°C 57.0°F13.9°C 43% 2.9 mph S4.7 kmh S 0.9 mph1.4 kmh 30.10 in1019.3 mb - 0.00 in0.0 mm 0.00 in0.0 mm
10:57 AM 81.5°F27.5°C 58.1°F14.5°C 45% 0.9 mph S1.4 kmh S 2.9 mph4.7 kmh 30.10 in1019.3 mb - 0.00 in0.0 mm 0.00 in0.0 mm
10:52 AM 81.0°F27.2°C 57.0°F13.9°C 44% 2.9 mph S4.7 kmh S 0.9 mph1.4 kmh 30.10 in1019.3 mb - 0.00 in0.0 mm 0.00 in0.0 mm
10:47 AM 80.6°F27.0°C 57.4°F14.1°C 45% 4.0 mph SE6.4 kmh SE -- 30.10 in1019.3 mb - 0.00 in0.0 mm 0.00 in0.0 mm
10:42 AM 80.8°F27.1°C 57.4°F14.1°C 45% 4.0 mph S6.4 kmh S 6.0 mph9.7 kmh 30.10 in1019.3 mb - 0.00 in0.0 mm 0.00 in0.0 mm
10:37 AM 80.8°F27.1°C 57.4°F14.1°C 45% 2.0 mph S3.2 kmh S 8.1 mph13.0 kmh 30.10 in1019.3 mb - 0.00 in0.0 mm 0.00 in0.0 mm
10:32 AM 80.4°F26.9°C 57.7°F14.3°C 46% 2.9 mph SW4.7 kmh SW -- 30.11 in1019.6 mb - 0.00 in0.0 mm 0.00 in0.0 mm
10:27 AM 80.8°F27.1°C 58.6°F14.8°C 47% 2.9 mph SW4.7 kmh SW -- 30.11 in1019.6 mb - 0.00 in0.0 mm 0.00 in0.0 mm
10:22 AM 80.1°F26.7°C 58.1°F14.5°C 47% 2.0 mph SW3.2 kmh SW 0.9 mph1.4 kmh 30.11 in1019.6 mb - 0.00 in0.0 mm 0.00 in0.0 mm
10:17 AM 80.1°F26.7°C 58.6°F14.8°C 48% 0.9 mph SW1.4 kmh SW 4.0 mph6.4 kmh 30.11 in1019.6 mb - 0.00 in0.0 mm 0.00 in0.0 mm
10:12 AM 80.1°F26.7°C 56.8°F13.8°C 45% 0.9 mph WNW1.4 kmh WNW -- 30.11 in1019.6 mb - 0.00 in0.0 mm 0.00 in0.0 mm
10:07 AM 80.2°F26.8°C 58.1°F14.5°C 47% 0.9 mph SSE1.4 kmh SSE -- 30.11 in1019.6 mb - 0.00 in0.0 mm 0.00 in0.0 mm
10:02 AM 80.2°F26.8°C 58.1°F14.5°C 47% 0.9 mph S1.4 kmh S 0.9 mph1.4 kmh 30.11 in1019.6 mb - 0.00 in0.0 mm 0.00 in0.0 mm
09:57 AM 80.1°F26.7°C 58.1°F14.5°C 47% 2.0 mph ESE3.2 kmh ESE -- 30.11 in1019.6 mb - 0.00 in0.0 mm 0.00 in0.0 mm
09:52 AM 79.2°F26.2°C 58.3°F14.6°C 49% 2.0 mph S3.2 kmh S 2.0 mph3.2 kmh 30.11 in1019.6 mb - 0.00 in0.0 mm 0.00 in0.0 mm
09:47 AM 79.3°F26.3°C 58.5°F14.7°C 49% 0.9 mph SW1.4 kmh SW 4.9 mph7.9 kmh 30.11 in1019.6 mb - 0.00 in0.0 mm 0.00 in0.0 mm
09:42 AM 79.2°F26.2°C 59.0°F15.0°C 50% 0.9 mph S1.4 kmh S 0.9 mph1.4 kmh 30.11 in1019.6 mb - 0.00 in0.0 mm 0.00 in0.0 mm
09:37 AM 78.6°F25.9°C 58.5°F14.7°C 50% 0.9 mph S1.4 kmh S -- 30.11 in1019.6 mb - 0.00 in0.0 mm 0.00 in0.0 mm
09:32 AM 78.4°F25.8°C 58.8°F14.9°C 51% 0.9 mph S1.4 kmh S -- 30.11 in1019.6 mb - 0.00 in0.0 mm 0.00 in0.0 mm
09:27 AM 78.3°F25.7°C 58.6°F14.8°C 51% 0.9 mph SSE1.4 kmh SSE -- 30.11 in1019.6 mb - 0.00 in0.0 mm 0.00 in0.0 mm
09:22 AM 78.1°F25.6°C 59.5°F15.3°C 53% 0.9 mph SSW1.4 kmh SSW -- 30.11 in1019.6 mb - 0.00 in0.0 mm 0.00 in0.0 mm
09:17 AM 77.5°F25.3°C 59.0°F15.0°C 53% 0.9 mph S1.4 kmh S -- 30.11 in1019.6 mb - 0.00 in0.0 mm 0.00 in0.0 mm
09:12 AM 77.5°F25.3°C 59.0°F15.0°C 53% 0.9 mph S1.4 kmh S -- 30.11 in1019.6 mb - 0.00 in0.0 mm 0.00 in0.0 mm
09:07 AM 77.2°F25.1°C 59.2°F15.1°C 54% 0.9 mph S1.4 kmh S 2.9 mph4.7 kmh 30.11 in1019.6 mb - 0.00 in0.0 mm 0.00 in0.0 mm
09:02 AM 76.8°F24.9°C 61.0°F16.1°C 58% 0.9 mph SW1.4 kmh SW -- 30.11 in1019.6 mb - 0.00 in0.0 mm 0.00 in0.0 mm
08:57 AM 76.8°F24.9°C 60.4°F15.8°C 57% 0.9 mph SSW1.4 kmh SSW 0.9 mph1.4 kmh 30.11 in1019.6 mb - 0.00 in0.0 mm 0.00 in0.0 mm
08:52 AM 76.5°F24.7°C 60.6°F15.9°C 58% 0.9 mph SSW1.4 kmh SSW -- 30.11 in1019.6 mb - 0.00 in0.0 mm 0.00 in0.0 mm
08:47 AM 75.9°F24.4°C 60.1°F15.6°C 58% Calm Calm -- 30.12 in1020.0 mb - 0.00 in0.0 mm 0.00 in0.0 mm
08:42 AM 75.7°F24.3°C 59.9°F15.5°C 58% Calm Calm 4.0 mph6.4 kmh 30.12 in1020.0 mb - 0.00 in0.0 mm 0.00 in0.0 mm
08:37 AM 75.4°F24.1°C 61.9°F16.6°C 63% Calm Calm -- 30.12 in1020.0 mb - 0.00 in0.0 mm 0.00 in0.0 mm
08:32 AM 74.8°F23.8°C 61.0°F16.1°C 62% Calm Calm -- 30.12 in1020.0 mb - 0.00 in0.0 mm 0.00 in0.0 mm
08:27 AM 74.7°F23.7°C 62.6°F17.0°C 66% Calm Calm -- 30.12 in1020.0 mb - 0.00 in0.0 mm 0.00 in0.0 mm
08:22 AM 74.3°F23.5°C 63.1°F17.3°C 68% Calm Calm -- 30.12 in1020.0 mb - 0.00 in0.0 mm 0.00 in0.0 mm
08:17 AM 73.9°F23.3°C 62.8°F17.1°C 68% Calm Calm -- 30.12 in1020.0 mb - 0.00 in0.0 mm 0.00 in0.0 mm
08:12 AM 73.0°F22.8°C 62.6°F17.0°C 70% Calm Calm -- 30.12 in1020.0 mb - 0.00 in0.0 mm 0.00 in0.0 mm
08:07 AM 72.1°F22.3°C 62.2°F16.8°C 71% Calm Calm -- 30.12 in1020.0 mb - 0.00 in0.0 mm 0.00 in0.0 mm
08:02 AM 71.8°F22.1°C 62.2°F16.8°C 72% Calm Calm -- 30.12 in1020.0 mb - 0.00 in0.0 mm 0.00 in0.0 mm
07:57 AM 71.1°F21.7°C 61.2°F16.2°C 71% Calm Calm -- 30.12 in1020.0 mb - 0.00 in0.0 mm 0.00 in0.0 mm
07:52 AM 70.7°F21.5°C 61.2°F16.2°C 72% Calm Calm -- 30.12 in1020.0 mb - 0.00 in0.0 mm 0.00 in0.0 mm
07:47 AM 70.0°F21.1°C 60.6°F15.9°C 72% Calm Calm -- 30.12 in1020.0 mb - 0.00 in0.0 mm 0.00 in0.0 mm
07:42 AM 69.4°F20.8°C 60.4°F15.8°C 73% Calm Calm -- 30.12 in1020.0 mb - 0.00 in0.0 mm 0.00 in0.0 mm
07:37 AM 68.7°F20.4°C 59.7°F15.4°C 73% Calm Calm -- 30.12 in1020.0 mb - 0.00 in0.0 mm 0.00 in0.0 mm
07:32 AM 68.2°F20.1°C 59.9°F15.5°C 75% Calm Calm -- 30.13 in1020.3 mb - 0.00 in0.0 mm 0.00 in0.0 mm
07:27 AM 67.5°F19.7°C 59.5°F15.3°C 76% Calm Calm -- 30.13 in1020.3 mb - 0.00 in0.0 mm 0.00 in0.0 mm
07:22 AM 66.9°F19.4°C 59.2°F15.1°C 76% Calm Calm -- 30.12 in1020.0 mb - 0.00 in0.0 mm 0.00 in0.0 mm
07:17 AM 66.6°F19.2°C 58.8°F14.9°C 76% Calm Calm -- 30.12 in1020.0 mb - 0.00 in0.0 mm 0.00 in0.0 mm
07:12 AM 66.0°F18.9°C 58.6°F14.8°C 77% Calm Calm -- 30.13 in1020.3 mb - 0.00 in0.0 mm 0.00 in0.0 mm
07:07 AM 65.7°F18.7°C 58.6°F14.8°C 78% Calm Calm -- 30.13 in1020.3 mb - 0.00 in0.0 mm 0.00 in0.0 mm
07:02 AM 65.3°F18.5°C 58.3°F14.6°C 78% Calm Calm -- 30.13 in1020.3 mb - 0.00 in0.0 mm 0.00 in0.0 mm
06:57 AM 64.9°F18.3°C 58.3°F14.6°C 79% Calm Calm -- 30.12 in1020.0 mb - 0.00 in0.0 mm 0.00 in0.0 mm
06:52 AM 64.6°F18.1°C 58.3°F14.6°C 80% Calm Calm -- 30.13 in1020.3 mb - 0.00 in0.0 mm 0.00 in0.0 mm
06:47 AM 64.0°F17.8°C 58.1°F14.5°C 81% Calm Calm -- 30.13 in1020.3 mb - 0.00 in0.0 mm 0.00 in0.0 mm
06:42 AM 63.7°F17.6°C 58.1°F14.5°C 82% Calm Calm -- 30.13 in1020.3 mb - 0.00 in0.0 mm 0.00 in0.0 mm
06:37 AM 63.1°F17.3°C 57.6°F14.2°C 82% Calm Calm -- 30.13 in1020.3 mb - 0.00 in0.0 mm 0.00 in0.0 mm
06:32 AM 63.3°F17.4°C 57.7°F14.3°C 82% Calm Calm -- 30.13 in1020.3 mb - 0.00 in0.0 mm 0.00 in0.0 mm
06:27 AM 63.0°F17.2°C 57.4°F14.1°C 82% Calm Calm -- 30.13 in1020.3 mb - 0.00 in0.0 mm 0.00 in0.0 mm
06:22 AM 63.0°F17.2°C 57.4°F14.1°C 82% Calm Calm -- 30.13 in1020.3 mb - 0.00 in0.0 mm 0.00 in0.0 mm
06:17 AM 62.8°F17.1°C 57.2°F14.0°C 82% Calm Calm -- 30.13 in1020.3 mb - 0.00 in0.0 mm 0.00 in0.0 mm
06:12 AM 62.4°F16.9°C 57.2°F14.0°C 83% Calm Calm -- 30.13 in1020.3 mb - 0.00 in0.0 mm 0.00 in0.0 mm
06:07 AM 62.4°F16.9°C 57.2°F14.0°C 83% Calm Calm -- 30.13 in1020.3 mb - 0.00 in0.0 mm 0.00 in0.0 mm
06:02 AM 62.1°F16.7°C 57.2°F14.0°C 84% Calm Calm -- 30.13 in1020.3 mb - 0.00 in0.0 mm 0.00 in0.0 mm
05:57 AM 61.9°F16.6°C 57.0°F13.9°C 84% Calm Calm -- 30.13 in1020.3 mb - 0.00 in0.0 mm 0.00 in0.0 mm
05:52 AM 61.5°F16.4°C 56.7°F13.7°C 84% Calm Calm -- 30.13 in1020.3 mb - 0.00 in0.0 mm 0.00 in0.0 mm
05:47 AM 61.3°F16.3°C 56.5°F13.6°C 84% Calm Calm -- 30.14 in1020.7 mb - 0.00 in0.0 mm 0.00 in0.0 mm
05:42 AM 61.3°F16.3°C 56.5°F13.6°C 84% Calm Calm -- 30.13 in1020.3 mb - 0.00 in0.0 mm 0.00 in0.0 mm
05:37 AM 61.3°F16.3°C 56.5°F13.6°C 84% Calm Calm -- 30.13 in1020.3 mb - 0.00 in0.0 mm 0.00 in0.0 mm
05:32 AM 61.2°F16.2°C 56.3°F13.5°C 84% Calm Calm -- 30.14 in1020.7 mb - 0.00 in0.0 mm 0.00 in0.0 mm
05:27 AM 61.0°F16.1°C 55.8°F13.2°C 83% Calm Calm -- 30.14 in1020.7 mb - 0.00 in0.0 mm 0.00 in0.0 mm
05:22 AM 61.0°F16.1°C 56.1°F13.4°C 84% Calm Calm -- 30.14 in1020.7 mb - 0.00 in0.0 mm 0.00 in0.0 mm
05:17 AM 61.3°F16.3°C 56.5°F13.6°C 84% Calm Calm -- 30.14 in1020.7 mb - 0.00 in0.0 mm 0.00 in0.0 mm
05:12 AM 61.2°F16.2°C 56.3°F13.5°C 84% Calm Calm -- 30.14 in1020.7 mb - 0.00 in0.0 mm 0.00 in0.0 mm
05:07 AM 61.0°F16.1°C 56.1°F13.4°C 84% Calm Calm -- 30.14 in1020.7 mb - 0.00 in0.0 mm 0.00 in0.0 mm
05:02 AM 61.2°F16.2°C 56.3°F13.5°C 84% Calm Calm -- 30.14 in1020.7 mb - 0.00 in0.0 mm 0.00 in0.0 mm
04:57 AM 61.2°F16.2°C 56.3°F13.5°C 84% Calm Calm -- 30.14 in1020.7 mb - 0.00 in0.0 mm 0.00 in0.0 mm
04:52 AM 61.3°F16.3°C 56.5°F13.6°C 84% Calm Calm -- 30.14 in1020.7 mb - 0.00 in0.0 mm 0.00 in0.0 mm
04:47 AM 61.2°F16.2°C 56.3°F13.5°C 84% Calm Calm -- 30.14 in1020.7 mb - 0.00 in0.0 mm 0.00 in0.0 mm
04:42 AM 61.3°F16.3°C 56.5°F13.6°C 84% Calm Calm -- 30.14 in1020.7 mb - 0.00 in0.0 mm 0.00 in0.0 mm
04:37 AM 61.3°F16.3°C 56.5°F13.6°C 84% Calm Calm -- 30.14 in1020.7 mb - 0.00 in0.0 mm 0.00 in0.0 mm
04:32 AM 61.2°F16.2°C 56.3°F13.5°C 84% Calm Calm -- 30.14 in1020.7 mb - 0.00 in0.0 mm 0.00 in0.0 mm
04:27 AM 61.2°F16.2°C 56.3°F13.5°C 84% Calm Calm -- 30.14 in1020.7 mb - 0.00 in0.0 mm 0.00 in0.0 mm
04:22 AM 61.2°F16.2°C 56.3°F13.5°C 84% Calm Calm -- 30.14 in1020.7 mb - 0.00 in0.0 mm 0.00 in0.0 mm
04:17 AM 61.3°F16.3°C 56.5°F13.6°C 84% Calm Calm -- 30.14 in1020.7 mb - 0.00 in0.0 mm 0.00 in0.0 mm
04:12 AM 61.3°F16.3°C 56.5°F13.6°C 84% Calm Calm -- 30.14 in1020.7 mb - 0.00 in0.0 mm 0.00 in0.0 mm
04:07 AM 61.2°F16.2°C 56.3°F13.5°C 84% Calm Calm -- 30.14 in1020.7 mb - 0.00 in0.0 mm 0.00 in0.0 mm
04:02 AM 61.2°F16.2°C 56.3°F13.5°C 84% Calm Calm -- 30.14 in1020.7 mb - 0.00 in0.0 mm 0.00 in0.0 mm
03:57 AM 61.0°F16.1°C 56.1°F13.4°C 84% Calm Calm -- 30.14 in1020.7 mb - 0.00 in0.0 mm 0.00 in0.0 mm
03:52 AM 61.2°F16.2°C 56.3°F13.5°C 84% Calm Calm -- 30.14 in1020.7 mb - 0.00 in0.0 mm 0.00 in0.0 mm
03:47 AM 61.0°F16.1°C 56.1°F13.4°C 84% Calm Calm -- 30.14 in1020.7 mb - 0.00 in0.0 mm 0.00 in0.0 mm
03:42 AM 61.2°F16.2°C 56.3°F13.5°C 84% Calm Calm -- 30.14 in1020.7 mb - 0.00 in0.0 mm 0.00 in0.0 mm
03:37 AM 61.3°F16.3°C 56.5°F13.6°C 84% Calm Calm -- 30.14 in1020.7 mb - 0.00 in0.0 mm 0.00 in0.0 mm
03:32 AM 61.3°F16.3°C 56.5°F13.6°C 84% Calm Calm -- 30.14 in1020.7 mb - 0.00 in0.0 mm 0.00 in0.0 mm
03:27 AM 61.3°F16.3°C 56.5°F13.6°C 84% Calm Calm -- 30.14 in1020.7 mb - 0.00 in0.0 mm 0.00 in0.0 mm
03:22 AM 61.2°F16.2°C 56.3°F13.5°C 84% Calm Calm -- 30.14 in1020.7 mb - 0.00 in0.0 mm 0.00 in0.0 mm
03:17 AM 61.2°F16.2°C 56.7°F13.7°C 85% Calm Calm -- 30.14 in1020.7 mb - 0.00 in0.0 mm 0.00 in0.0 mm
03:12 AM 61.2°F16.2°C 56.7°F13.7°C 85% Calm Calm -- 30.14 in1020.7 mb - 0.00 in0.0 mm 0.00 in0.0 mm
03:07 AM 61.3°F16.3°C 56.5°F13.6°C 84% Calm Calm -- 30.14 in1020.7 mb - 0.00 in0.0 mm 0.00 in0.0 mm
03:02 AM 61.3°F16.3°C 56.5°F13.6°C 84% Calm Calm -- 30.14 in1020.7 mb - 0.00 in0.0 mm 0.00 in0.0 mm
02:57 AM 61.3°F16.3°C 56.5°F13.6°C 84% Calm Calm -- 30.14 in1020.7 mb - 0.00 in0.0 mm 0.00 in0.0 mm
02:52 AM 61.5°F16.4°C 57.0°F13.9°C 85% Calm Calm -- 30.14 in1020.7 mb - 0.00 in0.0 mm 0.00 in0.0 mm
02:47 AM 61.5°F16.4°C 57.0°F13.9°C 85% Calm Calm -- 30.15 in1021.0 mb - 0.00 in0.0 mm 0.00 in0.0 mm
02:42 AM 61.7°F16.5°C 57.2°F14.0°C 85% Calm Calm -- 30.15 in1021.0 mb - 0.00 in0.0 mm 0.00 in0.0 mm
02:37 AM 61.7°F16.5°C 57.2°F14.0°C 85% Calm Calm -- 30.15 in1021.0 mb - 0.00 in0.0 mm 0.00 in0.0 mm
02:32 AM 61.5°F16.4°C 57.0°F13.9°C 85% Calm Calm -- 30.15 in1021.0 mb - 0.00 in0.0 mm 0.00 in0.0 mm
02:27 AM 61.5°F16.4°C 57.0°F13.9°C 85% Calm Calm -- 30.15 in1021.0 mb - 0.00 in0.0 mm 0.00 in0.0 mm
02:22 AM 61.5°F16.4°C 57.0°F13.9°C 85% Calm Calm -- 30.15 in1021.0 mb - 0.00 in0.0 mm 0.00 in0.0 mm
02:17 AM 61.5°F16.4°C 57.0°F13.9°C 85% Calm Calm -- 30.15 in1021.0 mb - 0.00 in0.0 mm 0.00 in0.0 mm
02:12 AM 61.5°F16.4°C 57.0°F13.9°C 85% Calm Calm -- 30.15 in1021.0 mb - 0.00 in0.0 mm 0.00 in0.0 mm
02:07 AM 61.3°F16.3°C 56.8°F13.8°C 85% Calm Calm -- 30.15 in1021.0 mb - 0.00 in0.0 mm 0.00 in0.0 mm
02:02 AM 61.5°F16.4°C 57.0°F13.9°C 85% Calm Calm -- 30.15 in1021.0 mb - 0.00 in0.0 mm 0.00 in0.0 mm
01:57 AM 61.5°F16.4°C 56.7°F13.7°C 84% Calm Calm -- 30.15 in1021.0 mb - 0.00 in0.0 mm 0.00 in0.0 mm
01:52 AM 61.9°F16.6°C 57.0°F13.9°C 84% Calm Calm -- 30.15 in1021.0 mb - 0.00 in0.0 mm 0.00 in0.0 mm
01:47 AM 61.9°F16.6°C 57.0°F13.9°C 84% Calm Calm -- 30.15 in1021.0 mb - 0.00 in0.0 mm 0.00 in0.0 mm
01:42 AM 61.9°F16.6°C 57.0°F13.9°C 84% Calm Calm -- 30.15 in1021.0 mb - 0.00 in0.0 mm 0.00 in0.0 mm
01:37 AM 62.1°F16.7°C 57.2°F14.0°C 84% Calm Calm -- 30.15 in1021.0 mb - 0.00 in0.0 mm 0.00 in0.0 mm
01:32 AM 61.9°F16.6°C 57.0°F13.9°C 84% Calm Calm -- 30.15 in1021.0 mb - 0.00 in0.0 mm 0.00 in0.0 mm
01:27 AM 62.1°F16.7°C 57.2°F14.0°C 84% Calm Calm -- 30.16 in1021.3 mb - 0.00 in0.0 mm 0.00 in0.0 mm
01:22 AM 62.1°F16.7°C 57.2°F14.0°C 84% Calm Calm -- 30.16 in1021.3 mb - 0.00 in0.0 mm 0.00 in0.0 mm
01:17 AM 62.1°F16.7°C 57.2°F14.0°C 84% Calm Calm -- 30.16 in1021.3 mb - 0.00 in0.0 mm 0.00 in0.0 mm
01:12 AM 61.9°F16.6°C 57.0°F13.9°C 84% Calm Calm -- 30.16 in1021.3 mb - 0.00 in0.0 mm 0.00 in0.0 mm
01:07 AM 61.9°F16.6°C 57.0°F13.9°C 84% Calm Calm -- 30.16 in1021.3 mb - 0.00 in0.0 mm 0.00 in0.0 mm
01:02 AM 62.1°F16.7°C 56.8°F13.8°C 83% Calm Calm -- 30.16 in1021.3 mb - 0.00 in0.0 mm 0.00 in0.0 mm
12:57 AM 61.9°F16.6°C 56.7°F13.7°C 83% Calm Calm -- 30.17 in1021.7 mb - 0.00 in0.0 mm 0.00 in0.0 mm
12:52 AM 62.1°F16.7°C 56.5°F13.6°C 82% Calm Calm -- 30.16 in1021.3 mb - 0.00 in0.0 mm 0.00 in0.0 mm
12:47 AM 62.2°F16.8°C 56.7°F13.7°C 82% Calm Calm -- 30.16 in1021.3 mb - 0.00 in0.0 mm 0.00 in0.0 mm
12:42 AM 62.4°F16.9°C 56.8°F13.8°C 82% Calm Calm -- 30.17 in1021.7 mb - 0.00 in0.0 mm 0.00 in0.0 mm
12:37 AM 62.4°F16.9°C 56.5°F13.6°C 81% Calm Calm -- 30.17 in1021.7 mb - 0.00 in0.0 mm 0.00 in0.0 mm
12:32 AM 62.8°F17.1°C 56.8°F13.8°C 81% Calm Calm -- 30.17 in1021.7 mb - 0.00 in0.0 mm 0.00 in0.0 mm
12:27 AM 62.8°F17.1°C 56.5°F13.6°C 80% Calm Calm -- 30.17 in1021.7 mb - 0.00 in0.0 mm 0.00 in0.0 mm
12:22 AM 63.0°F17.2°C 56.7°F13.7°C 80% Calm Calm -- 30.17 in1021.7 mb - 0.00 in0.0 mm 0.00 in0.0 mm
12:17 AM 63.0°F17.2°C 56.7°F13.7°C 80% Calm Calm -- 30.17 in1021.7 mb - 0.00 in0.0 mm 0.00 in0.0 mm
12:12 AM 63.0°F17.2°C 56.7°F13.7°C 80% Calm Calm -- 30.17 in1021.7 mb - 0.00 in0.0 mm 0.00 in0.0 mm
12:07 AM 63.0°F17.2°C 56.3°F13.5°C 79% Calm Calm -- 30.17 in1021.7 mb - 0.00 in0.0 mm 0.00 in0.0 mm
12:02 AM 63.0°F17.2°C 56.3°F13.5°C 79% Calm Calm -- 30.17 in1021.7 mb - 0.00 in0.0 mm 0.00 in0.0 mm